KCSQ/CSQ METAR and TAF weather

Enter ICAO airport designator
Station Type Date Time Source
KCSQ METAR 2022/11/27 09:15 UTC NOAA

KCSQ 270915Z AUTO 36014G20KT 10SM BKN070 OVC090 04/03 A2963 RMK AO2


Station Type Date Time Source
KCSQ Decoded METAR 2022/11/27 09:15 UTC NOAA

Creston, IA, United States (KCSQ) 41-01N 094-22W
Nov 27, 2022 - 04:15 AM EST / 2022.11.27 0915 UTC
Wind: from the N (360 degrees) at 16 MPH (14 KT) gusting to 23 MPH (20 KT):0
Visibility: 10 mile(s):0
Sky conditions: overcast
Temperature: 39 F (4 C)
Dew Point: 37 F (3 C)
Relative Humidity: 93%
Pressure (altimeter): 29.63 in. Hg (1003 hPa)
ob: KCSQ 270915Z AUTO 36014G20KT 10SM BKN070 OVC090 04/03 A2963 RMK AO2
cycle: 9

Station Type Date Time Source
KCSQ TAF UTC NOAA

Error!

Example: see airport list